createdAt,value
2023-01-29T00:01:30.645Z,10.80
2023-01-29T00:05:35.783Z,7.60
2023-01-29T00:09:38.683Z,8.40
2023-01-29T00:14:01.632Z,9.70
2023-01-29T00:18:04.444Z,10.50
2023-01-29T00:22:07.448Z,12.30
2023-01-29T00:26:11.342Z,10.10
2023-01-29T00:30:19.316Z,8.10
2023-01-29T00:34:23.513Z,6.20
2023-01-29T00:38:26.261Z,8.90
2023-01-29T00:43:46.481Z,8.50
2023-01-29T00:47:49.331Z,6.10
2023-01-29T00:52:24.704Z,6.60
2023-01-29T00:56:29.416Z,8.70
2023-01-29T01:00:32.210Z,10.50
2023-01-29T01:05:06.142Z,8.70
2023-01-29T01:09:29.170Z,10.60
2023-01-29T01:13:33.574Z,14.40
2023-01-29T01:18:10.270Z,8.80
2023-01-29T01:22:16.969Z,11.60
2023-01-29T01:26:19.783Z,13.30
2023-01-29T01:30:54.695Z,10.30
2023-01-29T01:34:57.559Z,8.80
2023-01-29T01:39:09.451Z,8.70
2023-01-29T01:43:12.265Z,12.40
2023-01-29T01:47:17.640Z,8.90
2023-01-29T01:51:24.491Z,10.50
2023-01-29T01:55:30.288Z,9.40
2023-01-29T01:59:34.084Z,9.00
2023-01-29T02:04:04.152Z,11.60
2023-01-29T02:09:06.666Z,8.70
2023-01-29T02:13:09.837Z,7.70
2023-01-29T02:17:19.226Z,10.50
2023-01-29T02:27:13.702Z,13.60
2023-01-29T02:31:41.291Z,25.70
2023-01-29T02:35:57.079Z,8.90
2023-01-29T02:40:44.016Z,16.30
2023-01-29T02:44:54.843Z,12.40
2023-01-29T02:49:34.487Z,9.70
2023-01-29T02:54:11.665Z,15.10
2023-01-29T02:58:25.759Z,11.90
2023-01-29T03:02:51.192Z,15.30
2023-01-29T03:07:00.766Z,12.20
2023-01-29T03:11:06.759Z,14.40
2023-01-29T03:16:16.180Z,11.50
2023-01-29T03:20:25.476Z,12.40
2023-01-29T03:25:05.465Z,14.50
2023-01-29T03:29:28.568Z,15.80
2023-01-29T03:33:36.526Z,10.30
2023-01-29T03:38:10.153Z,15.50
2023-01-29T03:42:38.444Z,15.40
2023-01-29T03:46:44.394Z,11.70
2023-01-29T03:51:22.666Z,12.60
2023-01-29T03:55:38.743Z,12.60
2023-01-29T04:00:23.748Z,13.00
2023-01-29T04:04:57.396Z,14.00
2023-01-29T04:09:06.631Z,13.70
2023-01-29T04:13:12.787Z,11.10
2023-01-29T04:17:21.573Z,12.00
2023-01-29T04:21:25.336Z,11.30
2023-01-29T04:25:36.219Z,13.80
2023-01-29T04:30:30.837Z,9.90
2023-01-29T04:35:08.934Z,10.10
2023-01-29T04:39:45.250Z,11.20
2023-01-29T04:44:09.851Z,11.80
2023-01-29T04:48:12.534Z,11.60
2023-01-29T04:52:39.666Z,10.40
2023-01-29T05:06:21.344Z,9.60
2023-01-29T05:10:30.623Z,7.80
2023-01-29T05:14:35.550Z,11.80
2023-01-29T05:18:38.302Z,11.30
2023-01-29T05:22:42.643Z,9.70
2023-01-29T05:27:07.003Z,10.90
2023-01-29T05:31:09.996Z,13.30
2023-01-29T05:35:18.097Z,9.50
2023-01-29T05:39:21.045Z,10.90
2023-01-29T05:43:53.139Z,15.20
2023-01-29T05:47:59.775Z,9.10
2023-01-29T05:53:08.014Z,9.70
2023-01-29T05:57:10.746Z,16.40
2023-01-29T06:01:18.401Z,10.10
2023-01-29T06:05:21.298Z,10.00
2023-01-29T06:09:24.098Z,12.80
2023-01-29T06:13:27.313Z,15.20
2023-01-29T06:17:30.215Z,16.10
2023-01-29T06:21:40.613Z,10.00
2023-01-29T06:25:43.437Z,12.00
2023-01-29T06:29:47.489Z,13.20
2023-01-29T06:33:50.424Z,12.90
2023-01-29T06:37:53.373Z,14.10
2023-01-29T06:42:47.264Z,11.00
2023-01-29T06:46:50.057Z,9.50
2023-01-29T06:50:55.153Z,14.30
2023-01-29T06:54:58.053Z,9.90
2023-01-29T06:59:27.735Z,10.60
2023-01-29T07:03:30.503Z,14.00
2023-01-29T07:07:43.549Z,10.60
2023-01-29T07:11:46.459Z,15.20
2023-01-29T07:16:06.045Z,10.50
2023-01-29T07:20:09.482Z,15.90
2023-01-29T07:24:12.312Z,10.00
2023-01-29T07:28:44.859Z,14.00
2023-01-29T07:32:47.700Z,13.60
2023-01-29T07:36:56.864Z,9.80
2023-01-29T07:41:00.564Z,18.80
2023-01-29T07:45:07.475Z,18.10
2023-01-29T07:49:10.363Z,12.00
2023-01-29T07:53:44.433Z,9.70
2023-01-29T07:57:48.107Z,16.20
2023-01-29T08:01:50.833Z,19.10
2023-01-29T08:05:58.443Z,16.30
2023-01-29T08:10:01.323Z,13.00
2023-01-29T08:14:19.882Z,12.70
2023-01-29T08:18:22.723Z,12.40
2023-01-29T08:22:30.929Z,17.00
2023-01-29T08:26:33.780Z,12.50
2023-01-29T08:30:36.857Z,17.50
2023-01-29T08:35:09.408Z,14.80
2023-01-29T08:44:04.433Z,15.00
2023-01-29T09:18:44.852Z,18.30
2023-01-29T09:23:35.891Z,15.70
2023-01-29T09:28:10.100Z,18.10
2023-01-29T09:32:53.922Z,15.80
2023-01-29T09:36:57.257Z,13.00
2023-01-29T09:41:03.085Z,16.60
2023-01-29T09:45:18.085Z,14.50
2023-01-29T09:49:31.541Z,13.40
2023-01-29T09:53:45.667Z,13.10
2023-01-29T09:58:00.865Z,17.90
2023-01-29T10:02:28.591Z,16.60
2023-01-29T10:07:11.459Z,14.00
2023-01-29T10:11:26.682Z,14.60
2023-01-29T10:15:32.501Z,11.90
2023-01-29T10:19:59.515Z,12.60
2023-01-29T10:24:22.373Z,12.40
2023-01-29T10:28:25.055Z,12.80
2023-01-29T10:32:40.269Z,13.70
2023-01-29T10:36:47.260Z,14.60
2023-01-29T10:41:16.082Z,13.80
2023-01-29T10:46:06.099Z,11.50
2023-01-29T10:50:53.996Z,10.50
2023-01-29T10:55:27.256Z,17.20
2023-01-29T11:00:13.864Z,12.30
2023-01-29T11:04:16.876Z,11.20
2023-01-29T11:08:23.872Z,11.00
2023-01-29T11:12:31.259Z,10.00
2023-01-29T11:16:47.248Z,9.70
2023-01-29T11:21:43.874Z,23.90
2023-01-29T11:25:52.932Z,11.20
2023-01-29T11:30:23.561Z,16.60
2023-01-29T11:34:31.073Z,14.80
2023-01-29T11:38:34.885Z,11.30
2023-01-29T11:42:43.570Z,12.10
2023-01-29T11:46:47.600Z,11.40
2023-01-29T11:50:53.665Z,16.10
2023-01-29T11:55:26.847Z,10.00
2023-01-29T11:59:46.561Z,14.80
2023-01-29T12:03:53.935Z,14.00
2023-01-29T12:08:22.517Z,10.30
2023-01-29T12:12:34.785Z,18.00
2023-01-29T12:16:56.749Z,16.00
2023-01-29T12:21:02.993Z,13.20
2023-01-29T12:25:16.398Z,14.10
2023-01-29T13:33:37.437Z,14.10
2023-01-29T13:37:54.154Z,14.60
2023-01-29T13:42:36.881Z,12.20
2023-01-29T13:47:20.122Z,15.50
2023-01-29T13:51:32.003Z,14.00
2023-01-29T13:56:37.148Z,14.20
2023-01-29T14:00:40.662Z,17.90
2023-01-29T14:05:31.688Z,21.70
2023-01-29T14:09:38.627Z,17.20
2023-01-29T14:14:01.432Z,16.60
2023-01-29T14:18:27.716Z,16.90
2023-01-29T14:22:33.973Z,13.60
2023-01-29T14:26:39.093Z,10.00
2023-01-29T14:30:49.010Z,13.20
2023-01-29T14:35:00.869Z,15.40
2023-01-29T14:39:05.850Z,15.20
2023-01-29T14:43:22.461Z,12.80
2023-01-29T14:47:28.959Z,9.70
2023-01-29T14:51:38.510Z,13.60
2023-01-29T14:56:01.011Z,15.30
2023-01-29T15:00:07.230Z,13.20
2023-01-29T15:04:11.979Z,12.50
2023-01-29T15:08:30.239Z,15.50
2023-01-29T15:12:50.380Z,15.70
2023-01-29T15:17:17.075Z,18.60
2023-01-29T15:21:19.911Z,16.10
2023-01-29T15:25:23.147Z,17.10
2023-01-29T15:29:28.013Z,21.80
2023-01-29T15:33:32.133Z,13.40
2023-01-29T15:37:36.466Z,14.80
2023-01-29T15:42:21.680Z,16.90
2023-01-29T15:46:33.787Z,17.60
2023-01-29T15:50:41.274Z,16.00
2023-01-29T15:54:47.668Z,19.20
2023-01-29T15:58:52.167Z,16.80
2023-01-29T16:02:56.514Z,19.20
2023-01-29T16:07:02.308Z,19.30
2023-01-29T16:20:45.899Z,17.90
2023-01-29T16:25:03.171Z,21.00
2023-01-29T16:29:33.776Z,16.40
2023-01-29T16:33:59.415Z,19.90
2023-01-29T16:38:08.788Z,22.20
2023-01-29T16:42:20.334Z,23.00
2023-01-29T16:46:28.769Z,17.90
2023-01-29T16:51:18.361Z,19.80
2023-01-29T16:55:23.825Z,15.70
2023-01-29T16:59:37.207Z,12.80
2023-01-29T17:03:42.498Z,19.60
2023-01-29T17:07:47.601Z,12.70
2023-01-29T17:11:57.021Z,16.50
2023-01-29T17:16:05.349Z,16.10
2023-01-29T17:20:16.225Z,14.80
2023-01-29T17:24:21.286Z,16.10
2023-01-29T17:28:28.133Z,13.40
2023-01-29T17:32:44.716Z,13.80
2023-01-29T17:37:20.535Z,18.40
2023-01-29T17:41:32.011Z,12.20
2023-01-29T17:45:36.216Z,13.40
2023-01-29T17:49:41.419Z,15.40
2023-01-29T17:53:47.223Z,16.40
2023-01-29T17:57:51.711Z,19.70
2023-01-29T18:01:59.842Z,20.20
2023-01-29T18:06:07.112Z,15.10
2023-01-29T18:10:19.548Z,16.40
2023-01-29T18:14:23.609Z,15.70
2023-01-29T18:18:27.894Z,16.00
2023-01-29T18:22:35.213Z,12.40
2023-01-29T18:26:39.719Z,14.50
2023-01-29T18:30:45.947Z,12.40
2023-01-29T18:38:54.224Z,15.80
2023-01-29T18:43:01.430Z,10.20
2023-01-29T18:47:06.772Z,12.90
2023-01-29T18:51:13.103Z,8.50
2023-01-29T18:55:17.596Z,7.50
2023-01-29T18:59:25.037Z,14.30
2023-01-29T19:03:32.363Z,12.00
2023-01-29T19:07:54.165Z,11.40
2023-01-29T19:11:58.233Z,9.60
2023-01-29T19:16:15.140Z,7.90
2023-01-29T19:20:19.672Z,13.00
2023-01-29T19:24:26.500Z,9.40
2023-01-29T19:28:30.894Z,12.60
2023-01-29T19:32:36.244Z,11.20
2023-01-29T19:36:40.377Z,12.30
2023-01-29T19:40:52.500Z,11.80
2023-01-29T19:44:56.584Z,10.70
2023-01-29T19:49:00.410Z,10.30
2023-01-29T19:53:05.713Z,9.50
2023-01-29T19:57:09.874Z,10.20
2023-01-29T20:01:19.567Z,12.10
2023-01-29T20:05:24.376Z,15.20
2023-01-29T20:09:29.477Z,17.60
2023-01-29T20:13:33.024Z,10.00
2023-01-29T20:17:35.787Z,13.70
2023-01-29T20:21:39.151Z,12.30
2023-01-29T20:25:43.490Z,16.20
2023-01-29T20:29:46.659Z,11.20
2023-01-29T20:33:49.599Z,12.50
2023-01-29T20:38:44.068Z,7.40
2023-01-29T20:42:46.881Z,5.90
2023-01-29T20:46:49.695Z,10.60
2023-01-29T20:50:53.371Z,8.40
2023-01-29T20:55:23.513Z,11.80
2023-01-29T20:59:28.996Z,6.20
2023-01-29T21:03:31.819Z,8.60
2023-01-29T21:08:25.237Z,5.40
2023-01-29T21:12:28.030Z,10.10
2023-01-29T21:16:57.830Z,7.10
2023-01-29T21:21:00.756Z,10.10
2023-01-29T21:25:03.749Z,8.60
2023-01-29T21:29:06.780Z,7.10
2023-01-29T21:33:09.591Z,8.20
2023-01-29T21:37:13.373Z,7.60
2023-01-29T21:41:16.168Z,8.20
2023-01-29T21:45:21.116Z,7.40
2023-01-29T21:49:24.431Z,6.20
2023-01-29T21:53:27.179Z,7.70
2023-01-29T21:57:30.080Z,9.40
2023-01-29T22:01:37.979Z,7.10
2023-01-29T22:05:41.441Z,6.80
2023-01-29T22:09:44.460Z,6.30
2023-01-29T22:13:47.556Z,4.70
2023-01-29T22:18:17.918Z,5.90
2023-01-29T22:22:20.810Z,7.20
2023-01-29T22:26:23.602Z,8.70
2023-01-29T22:30:31.558Z,5.10
2023-01-29T22:34:34.595Z,9.60
2023-01-29T22:38:37.480Z,6.50
2023-01-29T22:43:09.094Z,5.80
2023-01-29T22:47:12.306Z,8.30
2023-01-29T22:51:15.083Z,5.20
2023-01-29T22:56:10.091Z,8.10
2023-01-29T23:00:14.583Z,4.10
2023-01-29T23:04:17.478Z,5.40
2023-01-29T23:08:20.269Z,8.20
2023-01-29T23:12:23.240Z,4.90
2023-01-29T23:16:57.290Z,5.10
2023-01-29T23:21:00.099Z,4.40
2023-01-29T23:30:56.021Z,6.70
2023-01-29T23:34:59.060Z,2.80
2023-01-29T23:39:07.579Z,4.90
2023-01-29T23:43:10.398Z,6.20
2023-01-29T23:47:13.158Z,8.50
2023-01-29T23:51:16.026Z,4.70
2023-01-29T23:56:28.644Z,4.00
